createdAt,value
2022-08-11T00:01:36.811Z,4.22
2022-08-11T00:04:39.750Z,4.03
2022-08-11T00:07:44.530Z,4.18
2022-08-11T00:10:53.205Z,4.43
2022-08-11T00:13:55.205Z,5.28
2022-08-11T00:17:05.391Z,4.00
2022-08-11T00:20:11.665Z,4.72
2022-08-11T00:23:20.075Z,8.50
2022-08-11T00:26:23.875Z,5.35
2022-08-11T00:29:25.665Z,4.43
2022-08-11T00:32:30.029Z,5.53
2022-08-11T00:35:52.469Z,6.13
2022-08-11T00:39:02.565Z,4.35
2022-08-11T00:42:10.005Z,5.15
2022-08-11T00:45:20.214Z,6.18
2022-08-11T00:48:29.806Z,5.38
2022-08-11T00:52:05.804Z,4.72
2022-08-11T00:55:08.086Z,4.47
2022-08-11T00:58:40.074Z,4.50
2022-08-11T01:01:59.497Z,6.60
2022-08-11T01:05:13.243Z,6.50
2022-08-11T01:08:39.715Z,4.55
2022-08-11T01:12:12.516Z,5.40
2022-08-11T01:15:55.678Z,7.40
2022-08-11T01:19:17.797Z,6.65
2022-08-11T01:22:57.488Z,5.63
2022-08-11T01:26:17.487Z,4.28
2022-08-11T01:29:53.019Z,4.95
2022-08-11T01:33:15.683Z,7.10
2022-08-11T01:36:26.474Z,4.50
2022-08-11T01:39:58.453Z,5.90
2022-08-11T01:43:46.622Z,5.35
2022-08-11T01:47:06.094Z,5.88
2022-08-11T01:50:27.398Z,4.82
2022-08-11T01:53:37.881Z,5.05
2022-08-11T01:57:12.515Z,7.57
2022-08-11T02:00:20.753Z,4.88
2022-08-11T02:03:49.525Z,5.75
2022-08-11T02:06:56.990Z,4.28
2022-08-11T02:10:58.725Z,5.10
2022-08-11T02:14:39.192Z,5.78
2022-08-11T02:17:52.651Z,4.65
2022-08-11T02:21:20.956Z,5.90
2022-08-11T02:24:31.211Z,5.70
2022-08-11T02:27:48.166Z,4.53
2022-08-11T02:32:24.870Z,6.15
2022-08-11T02:35:32.841Z,5.10
2022-08-11T02:38:49.146Z,7.05
2022-08-11T02:42:32.587Z,5.85
2022-08-11T02:45:47.282Z,5.18
2022-08-11T02:49:17.766Z,5.70
2022-08-11T02:52:38.026Z,5.28
2022-08-11T02:56:08.726Z,6.50
2022-08-11T02:59:47.441Z,6.38
2022-08-11T03:03:16.363Z,5.35
2022-08-11T03:06:48.247Z,6.47
2022-08-11T03:10:02.998Z,7.43
2022-08-11T03:13:40.123Z,6.70
2022-08-11T03:16:55.581Z,5.28
2022-08-11T03:20:18.898Z,7.63
2022-08-11T03:23:41.450Z,8.00
2022-08-11T03:26:53.874Z,5.88
2022-08-11T03:30:15.964Z,7.78
2022-08-11T03:33:49.690Z,6.90
2022-08-11T03:40:37.670Z,6.68
2022-08-11T03:43:59.683Z,5.30
2022-08-11T03:47:23.192Z,5.15
2022-08-11T03:50:46.659Z,6.55
2022-08-11T03:54:16.153Z,6.57
2022-08-11T03:57:42.271Z,6.13
2022-08-11T04:01:08.770Z,7.18
2022-08-11T04:04:29.376Z,6.60
2022-08-11T04:07:53.773Z,7.63
2022-08-11T04:11:19.678Z,5.72
2022-08-11T04:15:09.379Z,6.65
2022-08-11T04:18:11.153Z,6.68
2022-08-11T04:21:35.646Z,8.05
2022-08-11T04:25:28.541Z,6.07
2022-08-11T04:29:00.116Z,8.25
2022-08-11T04:32:21.292Z,5.75
2022-08-11T04:35:51.137Z,5.78
2022-08-11T04:39:14.311Z,5.57
2022-08-11T04:43:01.900Z,6.93
2022-08-11T04:46:30.773Z,6.07
2022-08-11T04:50:17.145Z,7.07
2022-08-11T04:54:15.244Z,7.15
2022-08-11T04:58:10.667Z,7.25
2022-08-11T05:01:53.020Z,8.38
2022-08-11T05:05:22.494Z,6.70
2022-08-11T05:08:36.179Z,6.80
2022-08-11T05:12:02.392Z,8.05
2022-08-11T05:15:23.373Z,6.57
2022-08-11T05:18:47.760Z,8.32
2022-08-11T05:22:15.985Z,6.90
2022-08-11T05:26:44.551Z,7.10
2022-08-11T05:29:42.556Z,8.55
2022-08-11T05:33:05.203Z,8.07
2022-08-11T05:36:17.945Z,7.47
2022-08-11T05:39:52.320Z,6.70
2022-08-11T05:43:20.843Z,8.25
2022-08-11T05:46:41.070Z,13.73
2022-08-11T05:50:13.753Z,7.07
2022-08-11T05:53:45.939Z,8.07
2022-08-11T05:56:56.651Z,9.23
2022-08-11T06:00:05.535Z,10.07
2022-08-11T06:03:10.860Z,10.32
2022-08-11T06:06:12.631Z,10.57
2022-08-11T06:09:14.684Z,18.00
2022-08-11T06:12:22.761Z,17.55
2022-08-11T06:15:25.491Z,19.48
2022-08-11T06:18:28.314Z,13.68
2022-08-11T06:21:34.596Z,14.40
2022-08-11T06:24:38.876Z,14.20
2022-08-11T06:27:44.257Z,19.42
2022-08-11T06:30:47.129Z,17.63
2022-08-11T06:34:28.253Z,13.07
2022-08-11T06:37:46.821Z,16.55
2022-08-11T06:41:15.252Z,17.10
2022-08-11T06:44:27.951Z,16.05
2022-08-11T06:47:29.918Z,19.45
2022-08-11T06:50:51.156Z,14.95
2022-08-11T06:54:04.870Z,13.38
2022-08-11T06:57:31.383Z,14.95
2022-08-11T07:00:34.526Z,15.77
2022-08-11T07:03:40.976Z,22.70
2022-08-11T07:07:40.863Z,20.27
2022-08-11T07:11:32.683Z,22.73
2022-08-11T07:14:59.947Z,17.92
2022-08-11T07:18:23.462Z,16.80
2022-08-11T07:22:03.182Z,14.75
2022-08-11T07:25:32.342Z,12.57
2022-08-11T07:28:55.317Z,10.52
2022-08-11T07:32:03.427Z,18.77
2022-08-11T07:35:14.929Z,13.63
2022-08-11T07:38:25.166Z,7.65
2022-08-11T07:41:28.692Z,11.00
2022-08-11T07:44:34.990Z,7.25
2022-08-11T07:47:56.420Z,9.82
2022-08-11T07:51:17.842Z,6.18
2022-08-11T07:54:19.749Z,7.03
2022-08-11T07:57:56.272Z,10.90
2022-08-11T08:01:21.831Z,7.07
2022-08-11T08:04:46.820Z,6.60
2022-08-11T08:08:08.177Z,3.90
2022-08-11T08:11:28.373Z,4.22
2022-08-11T08:14:49.498Z,4.13
2022-08-11T08:18:20.555Z,6.40
2022-08-11T08:21:18.901Z,3.28
2022-08-11T08:24:21.486Z,3.50
2022-08-11T08:30:47.589Z,4.50
2022-08-11T08:33:49.592Z,3.00
2022-08-11T08:36:52.297Z,5.93
2022-08-11T08:39:54.754Z,4.65
2022-08-11T08:42:59.551Z,3.05
2022-08-11T08:46:02.012Z,2.90
2022-08-11T08:49:04.674Z,3.50
2022-08-11T08:52:29.438Z,6.55
2022-08-11T08:55:31.695Z,4.90
2022-08-11T08:58:36.331Z,4.93
2022-08-11T09:01:50.505Z,3.85
2022-08-11T09:04:52.958Z,3.33
2022-08-11T09:07:57.709Z,4.25
2022-08-11T09:11:19.952Z,3.90
2022-08-11T09:14:24.908Z,3.22
2022-08-11T09:17:28.842Z,5.70
2022-08-11T09:20:35.840Z,3.42
2022-08-11T09:24:21.957Z,4.70
2022-08-11T09:27:20.805Z,4.13
2022-08-11T09:30:27.751Z,3.20
2022-08-11T09:33:31.640Z,4.03
2022-08-11T09:36:52.890Z,7.45
2022-08-11T09:40:14.838Z,4.78
2022-08-11T09:43:36.635Z,5.25
2022-08-11T09:46:39.707Z,6.75
2022-08-11T09:49:44.455Z,4.85
2022-08-11T09:53:34.627Z,5.05
2022-08-11T09:56:35.783Z,4.72
2022-08-11T09:59:38.126Z,4.32
2022-08-11T10:02:44.247Z,4.75
2022-08-11T10:06:08.193Z,4.72
2022-08-11T10:09:10.591Z,3.70
2022-08-11T10:12:24.690Z,4.07
2022-08-11T10:15:38.351Z,2.90
2022-08-11T10:18:42.721Z,3.00
2022-08-11T10:22:10.303Z,3.05
2022-08-11T10:25:34.466Z,3.38
2022-08-11T10:28:44.697Z,3.58
2022-08-11T10:32:17.730Z,3.97
2022-08-11T10:35:21.156Z,3.13
2022-08-11T10:38:23.505Z,3.53
2022-08-11T10:42:06.737Z,3.15
2022-08-11T10:45:28.302Z,4.53
2022-08-11T10:48:36.380Z,3.80
2022-08-11T10:51:58.586Z,5.50
2022-08-11T10:55:19.217Z,3.85
2022-08-11T10:58:41.280Z,3.20
2022-08-11T11:01:44.231Z,3.10
2022-08-11T11:05:09.820Z,4.72
2022-08-11T11:08:35.093Z,5.35
2022-08-11T11:12:03.920Z,4.22
2022-08-11T11:15:25.106Z,2.85
2022-08-11T11:18:29.763Z,5.55
2022-08-11T11:21:32.809Z,3.03
2022-08-11T11:24:54.737Z,4.40
2022-08-11T11:28:22.658Z,3.78
2022-08-11T11:32:05.355Z,3.70
2022-08-11T11:35:15.886Z,4.47
2022-08-11T11:38:18.644Z,3.28
2022-08-11T11:41:26.104Z,4.22
2022-08-11T11:44:29.225Z,3.40
2022-08-11T11:47:32.105Z,4.20
2022-08-11T11:50:36.537Z,3.75
2022-08-11T11:53:38.199Z,2.92
2022-08-11T11:56:40.728Z,5.38
2022-08-11T12:00:00.935Z,3.85
2022-08-11T12:03:09.429Z,3.75
2022-08-11T12:06:14.149Z,3.55
2022-08-11T12:09:18.438Z,4.90
2022-08-11T12:12:39.363Z,3.80
2022-08-11T12:16:05.393Z,3.05
2022-08-11T12:19:12.835Z,5.47
2022-08-11T12:22:33.604Z,5.18
2022-08-11T12:26:16.297Z,3.30
2022-08-11T12:29:19.620Z,3.03
2022-08-11T12:32:24.225Z,3.67
2022-08-11T12:35:26.707Z,4.88
2022-08-11T12:38:29.717Z,4.03
2022-08-11T12:41:53.638Z,4.45
2022-08-11T12:45:22.163Z,3.10
2022-08-11T12:49:00.374Z,3.40
2022-08-11T12:52:13.505Z,3.88
2022-08-11T12:55:42.912Z,5.40
2022-08-11T12:59:24.900Z,2.75
2022-08-11T13:05:49.520Z,2.75
2022-08-11T13:08:52.127Z,2.90
2022-08-11T13:12:13.298Z,3.85
2022-08-11T13:15:22.631Z,3.60
2022-08-11T13:18:24.964Z,4.03
2022-08-11T13:21:28.034Z,5.35
2022-08-11T13:24:30.281Z,3.17
2022-08-11T13:27:32.339Z,5.60
2022-08-11T13:30:53.121Z,3.17
2022-08-11T13:33:54.898Z,4.35
2022-08-11T13:37:00.781Z,3.35
2022-08-11T13:40:02.705Z,3.92
2022-08-11T13:43:04.496Z,3.92
2022-08-11T13:46:22.632Z,3.13
2022-08-11T13:49:26.440Z,6.03
2022-08-11T13:52:28.857Z,3.53
2022-08-11T13:55:33.208Z,3.22
2022-08-11T13:58:54.105Z,3.85
2022-08-11T14:02:21.346Z,3.63
2022-08-11T14:05:39.088Z,7.32
2022-08-11T14:08:47.218Z,4.15
2022-08-11T14:12:21.590Z,3.38
2022-08-11T14:15:37.310Z,3.42
2022-08-11T14:18:48.983Z,4.40
2022-08-11T14:22:08.775Z,4.53
2022-08-11T14:25:13.728Z,3.72
2022-08-11T14:28:31.527Z,5.07
2022-08-11T14:31:38.909Z,6.38
2022-08-11T14:34:44.718Z,3.67
2022-08-11T14:37:47.058Z,3.67
2022-08-11T14:41:07.235Z,5.03
2022-08-11T14:44:28.689Z,6.78
2022-08-11T14:47:34.763Z,3.58
2022-08-11T14:50:37.034Z,4.63
2022-08-11T14:53:38.733Z,5.00
2022-08-11T14:59:44.548Z,5.57
2022-08-11T15:03:07.187Z,5.07
2022-08-11T15:06:08.849Z,5.28
2022-08-11T15:12:32.143Z,5.95
2022-08-11T15:15:54.323Z,3.55
2022-08-11T15:18:57.165Z,3.60
2022-08-11T15:22:17.942Z,4.07
2022-08-11T15:25:20.860Z,4.07
2022-08-11T15:28:43.181Z,4.05
2022-08-11T15:32:03.497Z,4.88
2022-08-11T15:35:25.151Z,4.55
2022-08-11T15:38:28.914Z,3.92
2022-08-11T15:42:03.622Z,5.32
2022-08-11T15:45:27.832Z,5.28
2022-08-11T15:48:32.498Z,4.45
2022-08-11T15:51:41.951Z,3.70
2022-08-11T15:54:46.607Z,3.80
2022-08-11T15:58:10.267Z,4.15
2022-08-11T16:01:32.800Z,3.42
2022-08-11T16:04:36.834Z,5.47
2022-08-11T16:07:40.806Z,4.07
2022-08-11T16:10:44.893Z,5.35
2022-08-11T16:13:48.054Z,5.28
2022-08-11T16:16:53.484Z,5.75
2022-08-11T16:19:57.298Z,4.55
2022-08-11T16:23:04.832Z,3.70
2022-08-11T16:27:10.078Z,5.18
2022-08-11T16:29:32.138Z,3.60
2022-08-11T16:32:36.572Z,4.45
2022-08-11T16:36:18.500Z,4.70
2022-08-11T16:39:20.897Z,6.07
2022-08-11T16:43:08.551Z,4.63
2022-08-11T16:46:34.825Z,6.15
2022-08-11T16:49:39.535Z,3.58
2022-08-11T16:52:42.525Z,4.13
2022-08-11T16:55:52.729Z,4.88
2022-08-11T16:59:15.567Z,4.53
2022-08-11T17:02:38.662Z,3.58
2022-08-11T17:06:06.201Z,4.72
2022-08-11T17:09:46.121Z,4.20
2022-08-11T17:13:09.168Z,4.70
2022-08-11T17:16:13.556Z,8.07
2022-08-11T17:20:42.046Z,3.72
2022-08-11T17:23:04.108Z,3.88
2022-08-11T17:26:05.916Z,3.72
2022-08-11T17:29:08.527Z,4.45
2022-08-11T17:32:32.690Z,3.42
2022-08-11T17:35:54.499Z,4.10
2022-08-11T17:38:56.396Z,10.27
2022-08-11T17:42:17.850Z,3.75
2022-08-11T17:45:40.683Z,3.70
2022-08-11T17:48:47.655Z,3.88
2022-08-11T17:52:10.099Z,4.65
2022-08-11T17:55:52.258Z,4.38
2022-08-11T17:59:13.056Z,5.75
2022-08-11T18:02:34.898Z,6.13
2022-08-11T18:05:40.758Z,5.28
2022-08-11T18:09:04.988Z,5.95
2022-08-11T18:12:26.568Z,4.13
2022-08-11T18:15:55.663Z,3.70
2022-08-11T18:19:17.053Z,3.45
2022-08-11T18:22:52.922Z,3.80
2022-08-11T18:26:19.665Z,4.43
2022-08-11T18:29:41.787Z,6.32
2022-08-11T18:33:39.934Z,6.75
2022-08-11T18:36:47.833Z,6.22
2022-08-11T18:40:14.824Z,5.15
2022-08-11T18:43:38.333Z,5.93
2022-08-11T18:47:02.295Z,4.07
2022-08-11T18:50:39.654Z,3.95
2022-08-11T18:54:02.815Z,5.82
2022-08-11T18:57:26.906Z,8.85
2022-08-11T19:00:49.141Z,3.83
2022-08-11T19:04:17.326Z,6.18
2022-08-11T19:07:40.102Z,5.85
2022-08-11T19:11:03.589Z,7.68
2022-08-11T19:14:24.868Z,4.05
2022-08-11T19:17:46.168Z,4.20
2022-08-11T19:21:07.553Z,4.10
2022-08-11T19:24:29.040Z,7.68
2022-08-11T19:27:50.512Z,5.88
2022-08-11T19:31:12.685Z,6.63
2022-08-11T19:34:40.291Z,3.92
2022-08-11T19:38:02.001Z,4.10
2022-08-11T19:41:57.062Z,4.80
2022-08-11T19:45:03.372Z,4.90
2022-08-11T19:48:32.525Z,3.92
2022-08-11T19:51:54.715Z,4.05
2022-08-11T19:55:15.913Z,3.80
2022-08-11T19:58:37.495Z,4.57
2022-08-11T20:02:01.675Z,4.70
2022-08-11T20:05:34.713Z,4.97
2022-08-11T20:08:59.018Z,5.57
2022-08-11T20:12:28.279Z,5.78
2022-08-11T20:15:48.900Z,6.90
2022-08-11T20:19:11.066Z,6.57
2022-08-11T20:22:34.489Z,4.10
2022-08-11T20:26:08.435Z,4.05
2022-08-11T20:29:36.768Z,4.13
2022-08-11T20:33:06.299Z,4.45
2022-08-11T20:36:27.934Z,4.38
2022-08-11T20:39:50.840Z,6.10
2022-08-11T20:43:16.768Z,5.18
2022-08-11T20:46:57.265Z,6.93
2022-08-11T20:50:20.349Z,5.75
2022-08-11T20:53:41.705Z,4.22
2022-08-11T20:57:03.539Z,6.63
2022-08-11T21:00:38.840Z,4.95
2022-08-11T21:04:00.736Z,4.90
2022-08-11T21:07:28.317Z,7.90
2022-08-11T21:10:52.355Z,4.63
2022-08-11T21:14:14.338Z,4.15
2022-08-11T21:17:37.429Z,4.40
2022-08-11T21:21:20.696Z,4.90
2022-08-11T21:24:46.929Z,5.90
2022-08-11T21:28:10.482Z,4.28
2022-08-11T21:31:31.188Z,4.00
2022-08-11T21:34:52.544Z,5.57
2022-08-11T21:38:12.988Z,4.82
2022-08-11T21:41:35.141Z,5.13
2022-08-11T21:44:56.489Z,4.43
2022-08-11T21:48:18.101Z,4.57
2022-08-11T21:51:38.456Z,5.20
2022-08-11T21:55:05.111Z,4.55
2022-08-11T21:58:27.368Z,4.53
2022-08-11T22:01:48.587Z,4.45
2022-08-11T22:05:10.393Z,4.53
2022-08-11T22:08:32.836Z,4.57
2022-08-11T22:12:01.213Z,4.75
2022-08-11T22:15:34.007Z,5.63
2022-08-11T22:18:54.924Z,4.28
2022-08-11T22:22:17.459Z,5.03
2022-08-11T22:25:38.909Z,5.85
2022-08-11T22:28:59.130Z,5.53
2022-08-11T22:32:19.849Z,5.18
2022-08-11T22:35:41.926Z,4.57
2022-08-11T22:39:04.391Z,5.85
2022-08-11T22:42:33.567Z,4.80
2022-08-11T22:45:54.170Z,4.57
2022-08-11T22:49:15.605Z,5.40
2022-08-11T22:52:37.621Z,4.50
2022-08-11T22:55:59.221Z,5.30
2022-08-11T22:59:20.227Z,3.83
2022-08-11T23:02:41.005Z,4.25
2022-08-11T23:06:01.421Z,5.03
2022-08-11T23:09:27.028Z,5.03
2022-08-11T23:12:47.711Z,4.38
2022-08-11T23:16:08.803Z,5.05
2022-08-11T23:20:08.065Z,4.90
2022-08-11T23:23:10.972Z,4.78
2022-08-11T23:26:31.956Z,7.57
2022-08-11T23:29:53.903Z,5.45
2022-08-11T23:33:18.348Z,4.68
2022-08-11T23:36:47.209Z,4.90
2022-08-11T23:40:07.882Z,4.57
2022-08-11T23:43:40.581Z,4.93
2022-08-11T23:47:02.123Z,9.03
2022-08-11T23:50:22.807Z,5.05
2022-08-11T23:53:43.254Z,6.43
2022-08-11T23:57:04.089Z,6.05
